Time;durP1;ratioP1;P1;durP2;ratioP2;P2;SDS_P1;SDS_P2;PMS_P1;PMS_P2;Temp;Humidity;BMP_temperature;BMP_pressure;BME280_temperature;BME280_humidity;BME280_pressure;Samples;Min_cycle;Max_cycle;Signal;HPM_P1;HPM_P2
2021/08/12 00:00:36;;;;;;;6.25;5.43;;;;;;;;;;5071249;28;20013;-60
2021/08/12 00:03:01;;;;;;;6.03;5.53;;;;;;;;;;5071637;28;20027;-61
2021/08/12 00:05:26;;;;;;;7.47;5.65;;;;;;;;;;5071579;28;20063;-61
2021/08/12 00:07:51;;;;;;;6.10;5.53;;;;;;;;;;5064843;28;20060;-60
2021/08/12 00:10:17;;;;;;;6.70;6.10;;;;;;;;;;5072105;28;20020;-61
2021/08/12 00:12:42;;;;;;;6.38;5.78;;;;;;;;;;5074190;28;20028;-60
2021/08/12 00:15:07;;;;;;;6.63;6.03;;;;;;;;;;5075988;28;20016;-61
2021/08/12 00:17:32;;;;;;;7.00;5.72;;;;;;;;;;5075271;28;20474;-60
2021/08/12 00:19:58;;;;;;;5.68;5.07;;;;;;;;;;5074980;28;20378;-60
2021/08/12 00:22:23;;;;;;;6.60;5.53;;;;;;;;;;5073178;28;20489;-61
2021/08/12 00:24:48;;;;;;;6.47;5.88;;;;;;;;;;5054391;28;20032;-60
2021/08/12 00:27:13;;;;;;;5.85;5.35;;;;;;;;;;5056484;28;20021;-60
2021/08/12 00:29:38;;;;;;;5.70;5.20;;;;;;;;;;5075338;28;20017;-60
2021/08/12 00:32:04;;;;;;;6.82;5.55;;;;;;;;;;5074786;28;20031;-61
2021/08/12 00:34:29;;;;;;;6.05;5.40;;;;;;;;;;5074144;28;20012;-61
2021/08/12 00:36:54;;;;;;;6.13;5.57;;;;;;;;;;5075041;28;20525;-61
2021/08/12 00:39:20;;;;;;;7.93;6.57;;;;;;;;;;5075105;28;20020;-61
2021/08/12 00:41:45;;;;;;;9.20;5.38;;;;;;;;;;5075276;28;20028;-60
2021/08/12 00:44:11;;;;;;;6.28;5.68;;;;;;;;;;5073588;28;20108;-60
2021/08/12 00:46:36;;;;;;;5.70;4.95;;;;;;;;;;5074534;28;20454;-61
2021/08/12 00:49:01;;;;;;;6.95;5.32;;;;;;;;;;5056460;28;20104;-61
2021/08/12 00:51:28;;;;;;;6.28;5.75;;;;;;;;;;5074757;28;20053;-60
2021/08/12 00:53:53;;;;;;;6.90;5.50;;;;;;;;;;5073404;28;20016;-60
2021/08/12 00:56:18;;;;;;;6.60;5.75;;;;;;;;;;5074333;28;20013;-60
2021/08/12 00:58:43;;;;;;;6.13;5.57;;;;;;;;;;5074886;28;20027;-60
2021/08/12 01:01:09;;;;;;;8.45;6.25;;;;;;;;;;5074678;28;20028;-60
2021/08/12 01:03:34;;;;;;;6.88;6.18;;;;;;;;;;5074052;28;20031;-62
2021/08/12 01:05:59;;;;;;;6.15;5.65;;;;;;;;;;5073986;28;20025;-60
2021/08/12 01:08:40;;;;;;;6.07;5.47;;;;;;;;;;5055210;28;20024;-60
2021/08/12 01:11:15;;;;;;;6.65;6.05;;;;;;;;;;5074314;28;20023;-61
2021/08/12 01:13:56;;;;;;;8.30;5.85;;;;;;;;;;5074103;28;20016;-61
2021/08/12 01:16:25;;;;;;;6.43;5.82;;;;;;;;;;5074717;28;20417;-60
2021/08/12 01:19:02;;;;;;;6.80;6.10;;;;;;;;;;5071057;28;20024;-60
2021/08/12 01:21:39;;;;;;;5.03;4.55;;;;;;;;;;5066396;28;20028;-60
2021/08/12 01:24:06;;;;;;;6.85;5.80;;;;;;;;;;5067480;28;20021;-60
2021/08/12 01:26:32;;;;;;;6.35;5.68;;;;;;;;;;5073957;28;20090;-60
2021/08/12 01:28:59;;;;;;;6.43;5.50;;;;;;;;;;5073502;28;20060;-61
2021/08/12 01:31:44;;;;;;;6.03;5.43;;;;;;;;;;5074151;28;20048;-60
2021/08/12 01:34:09;;;;;;;;;;;;;;;;;;5055760;28;20111;-60
2021/08/12 01:36:37;;;;;;;7.53;5.30;;;;;;;;;;5074102;28;20015;-60
2021/08/12 01:39:04;;;;;;;7.15;6.53;;;;;;;;;;5073666;28;20271;-59
2021/08/12 01:41:29;;;;;;;8.63;5.57;;;;;;;;;;5073748;28;20103;-60
2021/08/12 01:43:56;;;;;;;5.38;4.88;;;;;;;;;;5073484;28;20432;-59
2021/08/12 01:46:23;;;;;;;7.07;5.72;;;;;;;;;;5074132;28;20031;-61
2021/08/12 01:48:49;;;;;;;5.25;4.75;;;;;;;;;;5070336;28;20043;-60
2021/08/12 01:51:15;;;;;;;5.95;5.35;;;;;;;;;;5072970;28;20024;-60
2021/08/12 01:53:40;;;;;;;8.50;5.90;;;;;;;;;;5073611;28;20028;-60
2021/08/12 01:56:06;;;;;;;5.65;5.10;;;;;;;;;;5072854;28;20379;-60
2021/08/12 01:58:32;;;;;;;5.68;5.18;;;;;;;;;;5066251;28;20100;-60
2021/08/12 02:00:58;;;;;;;5.57;5.07;;;;;;;;;;5072538;28;20107;-60
2021/08/12 02:03:24;;;;;;;5.25;4.68;;;;;;;;;;5072932;28;20020;-60
2021/08/12 02:05:50;;;;;;;5.03;4.63;;;;;;;;;;5073810;28;20077;-60
2021/08/12 02:08:19;;;;;;;5.22;4.72;;;;;;;;;;5072097;28;20110;-60
2021/08/12 02:10:45;;;;;;;6.40;5.22;;;;;;;;;;5073492;28;20017;-60
2021/08/12 02:13:10;;;;;;;6.18;5.43;;;;;;;;;;5072593;28;20470;-61
2021/08/12 02:15:36;;;;;;;6.35;5.20;;;;;;;;;;5073645;28;20028;-62
2021/08/12 02:18:01;;;;;;;5.22;4.72;;;;;;;;;;5065811;28;20149;-60
2021/08/12 02:20:27;;;;;;;5.90;4.93;;;;;;;;;;5073671;28;20021;-60
2021/08/12 02:22:56;;;;;;;6.05;5.45;;;;;;;;;;5072858;28;20099;-60
2021/08/12 02:25:28;;;;;;;6.50;5.55;;;;;;;;;;5073148;28;20016;-60
2021/08/12 02:27:53;;;;;;;5.70;5.20;;;;;;;;;;5072595;28;20099;-60
2021/08/12 02:30:19;;;;;;;7.07;5.78;;;;;;;;;;5072955;28;20025;-60
2021/08/12 02:32:46;;;;;;;6.57;5.88;;;;;;;;;;5071688;28;20023;-60
2021/08/12 02:35:11;;;;;;;6.82;6.07;;;;;;;;;;5056361;28;20055;-60
2021/08/12 02:37:37;;;;;;;6.43;5.80;;;;;;;;;;5055071;28;20020;-60
2021/08/12 02:40:04;;;;;;;5.80;5.30;;;;;;;;;;5057257;28;20016;-60
2021/08/12 02:42:29;;;;;;;5.15;4.68;;;;;;;;;;5065486;28;20020;-61
2021/08/12 02:44:55;;;;;;;5.25;4.72;;;;;;;;;;5071929;28;20381;-60
2021/08/12 02:47:22;;;;;;;6.60;5.68;;;;;;;;;;5072511;28;20055;-60
2021/08/12 02:49:49;;;;;;;6.80;6.00;;;;;;;;;;5072781;28;20371;-61
2021/08/12 02:52:15;;;;;;;6.65;5.68;;;;;;;;;;5072012;28;20021;-60
2021/08/12 02:54:41;;;;;;;5.70;5.13;;;;;;;;;;5072081;28;20039;-60
2021/08/12 02:57:07;;;;;;;6.32;5.78;;;;;;;;;;5066754;28;20063;-60
2021/08/12 02:59:32;;;;;;;6.50;5.90;;;;;;;;;;5068539;28;20466;-60
2021/08/12 03:01:57;;;;;;;6.50;5.75;;;;;;;;;;5072291;28;20039;-60
2021/08/12 03:04:23;;;;;;;6.53;5.80;;;;;;;;;;5072143;28;20487;-60
2021/08/12 03:06:50;;;;;;;5.75;5.15;;;;;;;;;;5071532;28;20119;-60
2021/08/12 03:09:16;;;;;;;5.90;5.30;;;;;;;;;;5066089;28;20470;-60
2021/08/12 03:11:41;;;;;;;5.75;5.20;;;;;;;;;;5072070;28;20021;-61
2021/08/12 03:14:06;;;;;;;7.30;5.80;;;;;;;;;;5071961;28;20020;-61
2021/08/12 03:16:32;;;;;;;6.72;5.88;;;;;;;;;;5072069;28;20020;-61
2021/08/12 03:18:57;;;;;;;6.47;5.38;;;;;;;;;;5071980;28;20024;-61
2021/08/12 03:21:22;;;;;;;6.50;5.63;;;;;;;;;;5072042;28;20027;-61
2021/08/12 03:23:48;;;;;;;5.72;4.90;;;;;;;;;;5072359;28;20032;-61
2021/08/12 03:26:14;;;;;;;6.97;5.60;;;;;;;;;;5060633;28;20425;-60
2021/08/12 03:28:39;;;;;;;6.68;6.03;;;;;;;;;;5060520;28;20035;-61
2021/08/12 03:31:05;;;;;;;6.30;5.68;;;;;;;;;;5072178;28;20021;-61
2021/08/12 03:33:30;;;;;;;5.45;4.95;;;;;;;;;;5071450;28;20457;-61
2021/08/12 03:35:55;;;;;;;7.28;5.45;;;;;;;;;;5071848;28;20434;-61
2021/08/12 03:38:21;;;;;;;6.32;5.75;;;;;;;;;;5071770;28;20070;-61
2021/08/12 03:40:47;;;;;;;5.50;5.00;;;;;;;;;;5071508;28;20025;-61
2021/08/12 03:43:12;;;;;;;6.03;5.53;;;;;;;;;;5071580;28;20056;-60
2021/08/12 03:45:37;;;;;;;7.20;5.13;;;;;;;;;;5072043;28;20070;-61
2021/08/12 03:48:03;;;;;;;6.55;5.40;;;;;;;;;;5071818;28;20048;-60
2021/08/12 03:50:28;;;;;;;5.72;5.18;;;;;;;;;;5071910;28;20024;-61
2021/08/12 03:52:53;;;;;;;5.50;4.97;;;;;;;;;;5071549;28;20501;-60
2021/08/12 03:55:20;;;;;;;5.80;5.25;;;;;;;;;;5072266;28;20074;-61
2021/08/12 03:57:46;;;;;;;5.00;4.43;;;;;;;;;;5057178;28;20383;-61
2021/08/12 04:00:11;;;;;;;6.95;4.95;;;;;;;;;;5063394;28;20027;-61
2021/08/12 04:02:36;;;;;;;5.90;5.30;;;;;;;;;;5066106;28;20021;-61
2021/08/12 04:05:02;;;;;;;6.93;5.53;;;;;;;;;;5051396;28;20110;-61
2021/08/12 04:07:27;;;;;;;5.93;5.28;;;;;;;;;;5065180;28;20056;-60
2021/08/12 04:09:52;;;;;;;6.65;5.95;;;;;;;;;;5065226;28;20627;-60
2021/08/12 04:12:17;;;;;;;7.13;6.40;;;;;;;;;;5071284;28;20025;-60
2021/08/12 04:14:43;;;;;;;8.80;5.80;;;;;;;;;;5070894;28;20416;-60
2021/08/12 04:17:08;;;;;;;5.70;5.20;;;;;;;;;;5071279;28;20027;-61
2021/08/12 04:19:33;;;;;;;7.18;4.88;;;;;;;;;;5064048;28;20013;-61
2021/08/12 04:21:58;;;;;;;6.35;5.75;;;;;;;;;;5071878;28;20040;-61
2021/08/12 04:24:24;;;;;;;6.35;5.50;;;;;;;;;;5071380;28;20021;-61
2021/08/12 04:26:49;;;;;;;6.45;5.60;;;;;;;;;;5071358;28;20041;-61
2021/08/12 04:29:14;;;;;;;6.55;5.47;;;;;;;;;;5070965;28;20024;-61
2021/08/12 04:31:39;;;;;;;11.20;6.35;;;;;;;;;;5071340;28;20467;-62
2021/08/12 04:34:04;;;;;;;7.97;6.32;;;;;;;;;;5070741;28;20058;-60
2021/08/12 04:36:30;;;;;;;7.60;5.78;;;;;;;;;;5070910;28;20081;-60
2021/08/12 04:38:55;;;;;;;7.45;6.32;;;;;;;;;;5072653;28;20012;-60
2021/08/12 04:41:21;;;;;;;5.68;5.18;;;;;;;;;;5070659;28;20043;-60
2021/08/12 04:43:47;;;;;;;6.50;5.82;;;;;;;;;;5071509;28;20017;-61
2021/08/12 04:46:12;;;;;;;6.22;5.63;;;;;;;;;;5070993;28;20134;-60
2021/08/12 04:48:37;;;;;;;8.23;5.70;;;;;;;;;;5071494;28;20063;-62
2021/08/12 04:51:02;;;;;;;5.95;5.35;;;;;;;;;;5071426;28;20151;-60
2021/08/12 04:53:28;;;;;;;8.60;5.82;;;;;;;;;;5070885;28;20025;-61
2021/08/12 04:55:53;;;;;;;10.38;6.05;;;;;;;;;;5071403;28;20096;-60
2021/08/12 04:58:18;;;;;;;10.50;5.90;;;;;;;;;;5070418;28;20063;-60
2021/08/12 05:00:43;;;;;;;6.63;5.38;;;;;;;;;;5074613;28;20471;-60
2021/08/12 05:03:08;;;;;;;7.57;5.25;;;;;;;;;;5074644;28;20033;-60
2021/08/12 05:05:35;;;;;;;8.55;5.47;;;;;;;;;;5074709;28;20028;-60
2021/08/12 05:08:00;;;;;;;9.05;6.05;;;;;;;;;;5073367;28;20406;-60
2021/08/12 05:10:25;;;;;;;8.07;5.68;;;;;;;;;;5074047;28;20016;-60
2021/08/12 05:12:52;;;;;;;11.32;6.32;;;;;;;;;;5074048;28;20078;-60
2021/08/12 05:15:17;;;;;;;7.45;5.95;;;;;;;;;;5075183;28;20024;-60
2021/08/12 05:17:42;;;;;;;8.73;5.40;;;;;;;;;;5074439;28;20025;-60
2021/08/12 05:20:07;;;;;;;7.60;5.18;;;;;;;;;;5073955;28;20021;-61
2021/08/12 05:22:33;;;;;;;9.50;5.47;;;;;;;;;;5074452;28;20029;-60
2021/08/12 05:24:58;;;;;;;8.88;4.88;;;;;;;;;;5074245;28;20024;-60
2021/08/12 05:27:23;;;;;;;8.15;5.20;;;;;;;;;;5073133;28;20104;-61
2021/08/12 05:29:48;;;;;;;7.43;5.38;;;;;;;;;;5074366;28;20025;-61
2021/08/12 05:32:14;;;;;;;10.63;6.15;;;;;;;;;;5073610;28;20043;-60
2021/08/12 05:34:39;;;;;;;8.88;5.10;;;;;;;;;;5073973;28;20028;-61
2021/08/12 05:37:04;;;;;;;7.43;5.55;;;;;;;;;;5074069;28;20032;-60
2021/08/12 05:39:29;;;;;;;9.38;4.40;;;;;;;;;;5073691;28;20027;-61
2021/08/12 05:41:54;;;;;;;9.52;5.47;;;;;;;;;;5055176;28;20016;-61
2021/08/12 05:44:20;;;;;;;8.05;5.13;;;;;;;;;;5073983;28;20024;-61
2021/08/12 05:46:45;;;;;;;6.53;4.85;;;;;;;;;;5073544;28;20028;-61
2021/08/12 05:49:11;;;;;;;7.03;5.22;;;;;;;;;;5073370;28;20028;-61
2021/08/12 05:51:37;;;;;;;8.70;4.93;;;;;;;;;;5073784;28;20063;-60
2021/08/12 05:54:03;;;;;;;5.10;4.57;;;;;;;;;;5062324;28;20025;-58
2021/08/12 05:56:28;;;;;;;8.80;4.63;;;;;;;;;;5063235;28;20063;-60
2021/08/12 05:58:53;;;;;;;8.65;5.15;;;;;;;;;;5073757;28;20025;-60
2021/08/12 06:01:18;;;;;;;5.35;4.10;;;;;;;;;;5093916;28;20098;-63
2021/08/12 06:03:43;;;;;;;4.70;4.20;;;;;;;;;;5082488;28;20034;-61
2021/08/12 06:06:08;;;;;;;9.02;4.50;;;;;;;;;;5072641;28;20024;-60
2021/08/12 06:08:34;;;;;;;6.15;4.47;;;;;;;;;;5067361;28;20363;-61
2021/08/12 06:10:59;;;;;;;6.20;4.47;;;;;;;;;;5052959;28;20025;-61
2021/08/12 06:13:24;;;;;;;6.22;4.45;;;;;;;;;;5067292;28;20027;-61
2021/08/12 06:15:49;;;;;;;5.68;4.00;;;;;;;;;;5063148;28;20383;-61
2021/08/12 06:18:15;;;;;;;7.10;4.45;;;;;;;;;;5079178;28;20034;-61
2021/08/12 06:20:40;;;;;;;6.15;4.90;;;;;;;;;;5089321;28;20016;-61
2021/08/12 06:23:06;;;;;;;6.63;4.38;;;;;;;;;;5072777;28;20033;-61
2021/08/12 06:25:32;;;;;;;6.38;4.43;;;;;;;;;;5071602;28;20020;-61
2021/08/12 06:27:57;;;;;;;4.85;4.18;;;;;;;;;;5074096;28;20078;-61
2021/08/12 06:30:23;;;;;;;6.25;4.13;;;;;;;;;;5061549;28;20028;-61
2021/08/12 06:32:48;;;;;;;5.20;4.00;;;;;;;;;;5072359;28;20024;-61
2021/08/12 06:35:13;;;;;;;3.88;3.58;;;;;;;;;;5074626;28;20025;-61
2021/08/12 06:37:45;;;;;;;4.90;3.97;;;;;;;;;;5068041;28;20151;-62
2021/08/12 06:40:12;;;;;;;5.45;3.88;;;;;;;;;;5072523;28;20111;-62
2021/08/12 06:42:37;;;;;;;4.13;3.83;;;;;;;;;;5072287;28;20028;-62
2021/08/12 06:45:03;;;;;;;4.82;3.30;;;;;;;;;;5072677;28;20051;-61
2021/08/12 06:47:28;;;;;;;3.95;3.55;;;;;;;;;;5080147;28;20032;-61
2021/08/12 06:49:53;;;;;;;5.60;3.92;;;;;;;;;;5073332;28;20498;-60
2021/08/12 06:52:18;;;;;;;6.60;3.95;;;;;;;;;;5072853;28;20458;-60
2021/08/12 06:54:44;;;;;;;5.20;4.10;;;;;;;;;;5077431;28;20493;-60
2021/08/12 06:57:09;;;;;;;5.63;3.75;;;;;;;;;;5071647;28;20024;-60
2021/08/12 06:59:34;;;;;;;5.50;3.58;;;;;;;;;;5072560;28;20025;-60
2021/08/12 07:02:00;;;;;;;3.95;3.25;;;;;;;;;;5071913;28;20074;-60
2021/08/12 07:04:25;;;;;;;6.68;3.90;;;;;;;;;;5053249;28;20021;-60
2021/08/12 07:06:50;;;;;;;4.20;3.60;;;;;;;;;;5060776;28;20477;-60
2021/08/12 07:09:16;;;;;;;6.38;3.20;;;;;;;;;;5056580;28;20494;-60
2021/08/12 07:11:41;;;;;;;4.10;3.37;;;;;;;;;;5057766;28;20264;-60
2021/08/12 07:14:06;;;;;;;3.90;3.60;;;;;;;;;;5071782;28;20309;-60
2021/08/12 07:16:31;;;;;;;3.90;3.50;;;;;;;;;;5071476;28;20553;-61
2021/08/12 07:18:56;;;;;;;4.05;3.45;;;;;;;;;;5069256;28;20350;-60
2021/08/12 07:21:23;;;;;;;3.53;3.23;;;;;;;;;;5071282;28;20494;-60
2021/08/12 07:23:48;;;;;;;3.63;3.15;;;;;;;;;;5081838;28;20282;-61
2021/08/12 07:26:14;;;;;;;4.43;3.42;;;;;;;;;;5064847;28;20024;-60
2021/08/12 07:28:40;;;;;;;3.17;2.95;;;;;;;;;;5070776;28;20046;-61
2021/08/12 07:31:06;;;;;;;6.43;3.22;;;;;;;;;;5074381;28;20016;-61
2021/08/12 07:33:31;;;;;;;4.07;2.83;;;;;;;;;;5071609;28;20095;-60
2021/08/12 07:35:57;;;;;;;4.53;3.00;;;;;;;;;;5081901;28;20128;-60
2021/08/12 07:38:22;;;;;;;3.25;2.60;;;;;;;;;;5071675;28;20363;-61
2021/08/12 07:40:47;;;;;;;6.20;2.90;;;;;;;;;;5081306;28;20062;-61
2021/08/12 07:43:12;;;;;;;3.33;2.83;;;;;;;;;;5077841;28;20828;-60
2021/08/12 07:45:37;;;;;;;4.70;3.10;;;;;;;;;;5070043;28;20102;-60
2021/08/12 07:48:03;;;;;;;3.37;2.80;;;;;;;;;;5071578;28;20419;-60
2021/08/12 07:50:28;;;;;;;3.45;2.70;;;;;;;;;;5071644;28;20259;-61
2021/08/12 07:52:54;;;;;;;3.53;2.70;;;;;;;;;;5071180;28;20024;-60
2021/08/12 07:55:20;;;;;;;3.42;2.47;;;;;;;;;;5071332;28;20493;-61
2021/08/12 07:57:46;;;;;;;3.13;2.83;;;;;;;;;;5070383;28;20020;-61
2021/08/12 08:00:12;;;;;;;3.80;2.72;;;;;;;;;;5071384;28;20035;-61
2021/08/12 08:02:55;;;;;;;3.33;2.20;;;;;;;;;;5070914;28;20209;-61
2021/08/12 08:05:21;;;;;;;4.95;2.78;;;;;;;;;;5063057;28;20036;-61
2021/08/12 08:07:48;;;;;;;3.80;2.50;;;;;;;;;;5067983;28;20399;-61
2021/08/12 08:10:14;;;;;;;2.50;2.30;;;;;;;;;;5054779;28;20422;-61
2021/08/12 08:12:41;;;;;;;2.00;1.90;;;;;;;;;;5072376;28;20079;-61
2021/08/12 08:15:07;;;;;;;2.60;2.40;;;;;;;;;;5068553;28;20021;-61
2021/08/12 08:17:32;;;;;;;2.88;2.58;;;;;;;;;;5060656;28;20031;-60
2021/08/12 08:19:57;;;;;;;2.45;2.17;;;;;;;;;;5070839;28;20421;-61
2021/08/12 08:22:23;;;;;;;2.13;2.00;;;;;;;;;;5069775;28;20017;-61
2021/08/12 08:24:49;;;;;;;2.90;2.13;;;;;;;;;;5071456;28;20042;-61
2021/08/12 08:27:14;;;;;;;2.03;1.83;;;;;;;;;;5061478;28;20485;-61
2021/08/12 08:29:39;;;;;;;3.17;2.30;;;;;;;;;;5075099;28;20062;-61
2021/08/12 08:32:04;;;;;;;2.73;1.67;;;;;;;;;;5091623;28;20016;-61
2021/08/12 08:34:30;;;;;;;2.90;1.92;;;;;;;;;;5094152;28;20278;-61
2021/08/12 08:36:55;;;;;;;2.30;1.77;;;;;;;;;;5085810;28;20023;-61
2021/08/12 08:39:20;;;;;;;2.00;1.80;;;;;;;;;;5075447;28;20259;-61
2021/08/12 08:41:46;;;;;;;2.42;1.90;;;;;;;;;;5074510;28;20099;-61
2021/08/12 08:44:11;;;;;;;3.75;2.03;;;;;;;;;;5075311;28;20027;-61
2021/08/12 08:46:37;;;;;;;2.30;2.10;;;;;;;;;;5062021;28;20383;-61
2021/08/12 08:49:03;;;;;;;1.67;1.58;;;;;;;;;;5095272;28;20020;-61
2021/08/12 08:51:28;;;;;;;1.75;1.65;;;;;;;;;;5075112;28;20025;-61
2021/08/12 08:53:54;;;;;;;2.78;1.70;;;;;;;;;;5074995;28;20034;-61
2021/08/12 08:56:19;;;;;;;3.00;1.73;;;;;;;;;;5073279;28;20059;-61
2021/08/12 08:58:45;;;;;;;2.80;1.60;;;;;;;;;;5074701;28;20044;-61
2021/08/12 09:01:10;;;;;;;1.75;1.58;;;;;;;;;;5076380;28;20470;-61
2021/08/12 09:03:36;;;;;;;2.45;1.33;;;;;;;;;;5094715;28;20024;-61
2021/08/12 09:06:01;;;;;;;1.30;1.20;;;;;;;;;;5080577;28;20489;-61
2021/08/12 09:08:28;;;;;;;2.03;1.38;;;;;;;;;;5073637;28;20430;-61
2021/08/12 09:10:53;;;;;;;1.30;1.20;;;;;;;;;;5074515;28;20104;-61
2021/08/12 09:13:19;;;;;;;1.50;1.40;;;;;;;;;;5073976;28;20111;-61
2021/08/12 09:15:44;;;;;;;1.60;1.50;;;;;;;;;;5073993;28;20063;-61
2021/08/12 09:18:28;;;;;;;2.65;1.65;;;;;;;;;;5090255;28;20032;-61
2021/08/12 09:20:55;;;;;;;2.05;1.73;;;;;;;;;;5070002;28;20032;-61
2021/08/12 09:23:21;;;;;;;3.10;2.00;;;;;;;;;;5073511;28;20107;-61
2021/08/12 09:25:47;;;;;;;1.65;1.55;;;;;;;;;;5069419;28;20442;-60
2021/08/12 09:28:15;;;;;;;2.92;2.25;;;;;;;;;;5074337;28;20028;-60
2021/08/12 09:30:41;;;;;;;2.80;2.15;;;;;;;;;;5074117;28;20028;-61
2021/08/12 09:33:06;;;;;;;2.30;2.10;;;;;;;;;;5074320;28;20021;-61
2021/08/12 09:35:31;;;;;;;2.35;2.00;;;;;;;;;;5070649;28;20035;-61
2021/08/12 09:38:08;;;;;;;2.28;1.95;;;;;;;;;;5073021;28;20028;-61
2021/08/12 09:40:33;;;;;;;2.65;2.28;;;;;;;;;;5074040;28;20068;-60
2021/08/12 09:43:02;;;;;;;2.53;2.20;;;;;;;;;;5073390;28;20020;-61
2021/08/12 09:45:29;;;;;;;2.53;2.15;;;;;;;;;;5070558;28;20375;-62
2021/08/12 09:47:55;;;;;;;2.53;2.05;;;;;;;;;;5064275;28;20387;-61
2021/08/12 09:50:28;;;;;;;2.45;2.25;;;;;;;;;;5064493;28;20032;-61
2021/08/12 09:52:53;;;;;;;2.17;1.98;;;;;;;;;;5062592;28;20373;-61
2021/08/12 09:55:22;;;;;;;3.28;2.00;;;;;;;;;;5072969;28;20474;-60
2021/08/12 09:57:52;;;;;;;2.28;2.08;;;;;;;;;;5072153;28;20067;-61
2021/08/12 10:00:23;;;;;;;2.83;2.30;;;;;;;;;;5058059;28;20028;-61
2021/08/12 10:02:48;;;;;;;2.42;1.77;;;;;;;;;;5053617;28;20025;-61
2021/08/12 10:05:14;;;;;;;2.80;2.50;;;;;;;;;;5053182;28;20017;-61
2021/08/12 10:07:45;;;;;;;2.33;2.13;;;;;;;;;;5068296;28;20064;-61
2021/08/12 10:10:14;;;;;;;2.67;1.80;;;;;;;;;;5072702;28;20299;-61
2021/08/12 10:12:43;;;;;;;2.05;1.95;;;;;;;;;;5070584;28;20033;-61
2021/08/12 10:15:10;;;;;;;2.28;2.08;;;;;;;;;;5055101;28;20095;-61
2021/08/12 10:17:35;;;;;;;2.42;1.73;;;;;;;;;;5053502;28;20493;-61
2021/08/12 10:20:01;;;;;;;3.03;2.20;;;;;;;;;;5053403;28;20017;-61
2021/08/12 10:22:27;;;;;;;2.47;2.00;;;;;;;;;;5068234;28;20092;-61
2021/08/12 10:24:52;;;;;;;2.30;2.10;;;;;;;;;;5072848;28;20031;-61
2021/08/12 10:27:18;;;;;;;2.33;2.13;;;;;;;;;;5072701;28;20103;-62
2021/08/12 10:29:45;;;;;;;2.40;2.20;;;;;;;;;;5073140;28;20250;-61
2021/08/12 10:32:11;;;;;;;2.03;1.88;;;;;;;;;;5073075;28;20020;-61
2021/08/12 10:34:37;;;;;;;2.53;2.30;;;;;;;;;;5072564;28;20362;-61
2021/08/12 10:37:02;;;;;;;2.50;2.10;;;;;;;;;;5072507;28;20077;-63
2021/08/12 10:39:27;;;;;;;2.50;2.30;;;;;;;;;;5072415;28;20023;-61
2021/08/12 10:41:53;;;;;;;2.58;2.38;;;;;;;;;;5064515;28;20025;-61
2021/08/12 10:44:21;;;;;;;2.25;2.00;;;;;;;;;;5053513;28;20057;-60
2021/08/12 10:46:47;;;;;;;2.70;2.50;;;;;;;;;;5061273;28;20021;-61
2021/08/12 10:49:27;;;;;;;2.50;2.30;;;;;;;;;;5066306;28;20024;-59
2021/08/12 10:51:59;;;;;;;3.20;2.13;;;;;;;;;;5067733;28;20471;-61
2021/08/12 10:54:24;;;;;;;2.20;2.00;;;;;;;;;;5072242;28;20042;-62
2021/08/12 10:56:49;;;;;;;2.40;2.20;;;;;;;;;;5071027;28;20020;-61
2021/08/12 10:59:14;;;;;;;3.23;2.20;;;;;;;;;;5054132;28;20282;-61
2021/08/12 11:01:41;;;;;;;2.30;2.10;;;;;;;;;;5072574;28;20020;-61
2021/08/12 11:04:07;;;;;;;2.08;1.98;;;;;;;;;;5071820;28;20064;-57
2021/08/12 11:06:35;;;;;;;2.47;2.28;;;;;;;;;;5071038;28;20539;-61
2021/08/12 11:09:02;;;;;;;2.65;1.70;;;;;;;;;;5070632;28;20470;-61
2021/08/12 11:11:30;;;;;;;2.28;2.10;;;;;;;;;;5069697;28;20021;-60
2021/08/12 11:13:59;;;;;;;2.55;2.20;;;;;;;;;;5067022;28;20051;-61
2021/08/12 11:16:25;;;;;;;2.10;2.00;;;;;;;;;;5066265;28;20008;-61
2021/08/12 11:18:55;;;;;;;2.42;2.22;;;;;;;;;;5063931;28;20013;-61
2021/08/12 11:21:29;;;;;;;2.22;1.95;;;;;;;;;;5057641;28;20016;-60
2021/08/12 11:23:55;;;;;;;2.30;2.10;;;;;;;;;;5069842;28;20118;-60
2021/08/12 11:26:20;;;;;;;2.40;2.20;;;;;;;;;;5066812;28;20021;-60
2021/08/12 11:28:50;;;;;;;3.73;1.63;;;;;;;;;;5070376;28;20225;-60
2021/08/12 11:31:18;;;;;;;2.72;2.05;;;;;;;;;;5072033;28;20280;-60
2021/08/12 11:33:45;;;;;;;2.20;2.00;;;;;;;;;;5070012;28;20098;-60
2021/08/12 11:36:14;;;;;;;2.28;2.10;;;;;;;;;;5070955;28;20398;-60
2021/08/12 11:38:46;;;;;;;3.03;2.33;;;;;;;;;;5063821;28;20463;-60
2021/08/12 11:41:11;;;;;;;2.15;1.75;;;;;;;;;;5071259;28;20130;-60
2021/08/12 11:43:40;;;;;;;1.80;1.70;;;;;;;;;;5070735;28;20024;-60
2021/08/12 11:46:06;;;;;;;2.20;1.88;;;;;;;;;;5061271;28;20070;-60
2021/08/12 11:48:33;;;;;;;1.88;1.77;;;;;;;;;;5063788;28;20025;-60
2021/08/12 11:51:00;;;;;;;3.30;1.77;;;;;;;;;;5067336;28;20024;-60
2021/08/12 11:53:41;;;;;;;2.88;2.30;;;;;;;;;;5071644;28;20035;-60
2021/08/12 11:56:08;;;;;;;2.05;1.95;;;;;;;;;;5068209;28;20012;-60
2021/08/12 11:58:34;;;;;;;3.38;1.83;;;;;;;;;;5051262;28;20059;-60
2021/08/12 12:01:09;;;;;;;2.80;1.70;;;;;;;;;;5071250;28;20028;-60
2021/08/12 12:03:34;;;;;;;1.88;1.77;;;;;;;;;;5066084;28;20095;-60
2021/08/12 12:06:00;;;;;;;1.85;1.75;;;;;;;;;;5062750;28;20111;-59
2021/08/12 12:08:27;;;;;;;1.83;1.70;;;;;;;;;;5070866;28;20052;-59
2021/08/12 12:10:52;;;;;;;1.70;1.60;;;;;;;;;;5070654;28;20052;-60
2021/08/12 12:13:18;;;;;;;2.00;1.80;;;;;;;;;;5067587;28;20531;-60
2021/08/12 12:15:45;;;;;;;1.90;1.63;;;;;;;;;;5069188;28;20039;-60
2021/08/12 12:18:11;;;;;;;2.05;1.90;;;;;;;;;;5051524;28;20382;-60
2021/08/12 12:20:39;;;;;;;2.42;1.50;;;;;;;;;;5066230;28;20087;-58
2021/08/12 12:23:09;;;;;;;1.52;1.42;;;;;;;;;;5064246;28;20017;-60
2021/08/12 12:25:35;;;;;;;1.70;1.60;;;;;;;;;;5067261;28;20021;-61
2021/08/12 12:28:01;;;;;;;1.60;1.50;;;;;;;;;;5066954;28;20046;-61
2021/08/12 12:30:28;;;;;;;2.00;1.90;;;;;;;;;;5066608;28;20021;-60
2021/08/12 12:32:57;;;;;;;1.60;1.50;;;;;;;;;;5068190;28;20029;-60
2021/08/12 12:35:23;;;;;;;1.30;1.30;;;;;;;;;;5067948;28;20016;-60
2021/08/12 12:37:48;;;;;;;2.25;1.60;;;;;;;;;;5055425;28;20527;-60
2021/08/12 12:40:18;;;;;;;2.40;1.23;;;;;;;;;;5072899;28;20032;-60
2021/08/12 12:42:43;;;;;;;1.60;1.50;;;;;;;;;;5059488;28;20479;-60
2021/08/12 12:45:10;;;;;;;1.50;1.40;;;;;;;;;;5073546;28;20050;-60
2021/08/12 12:47:36;;;;;;;1.55;1.45;;;;;;;;;;5075255;28;20059;-60
2021/08/12 12:50:04;;;;;;;1.63;1.52;;;;;;;;;;5074822;28;20012;-60
2021/08/12 12:52:29;;;;;;;2.05;1.42;;;;;;;;;;5074406;28;20024;-60
2021/08/12 12:54:57;;;;;;;1.70;1.60;;;;;;;;;;5074440;28;20051;-60
2021/08/12 12:57:29;;;;;;;1.77;1.50;;;;;;;;;;5072878;28;20021;-60
2021/08/12 12:59:55;;;;;;;1.30;1.20;;;;;;;;;;5074406;28;20035;-61
2021/08/12 13:02:20;;;;;;;2.03;1.40;;;;;;;;;;5074862;28;20458;-61
2021/08/12 13:04:54;;;;;;;2.60;1.70;;;;;;;;;;5074318;28;20013;-60
2021/08/12 13:07:20;;;;;;;3.25;1.15;;;;;;;;;;5074015;28;20044;-61
2021/08/12 13:09:46;;;;;;;1.63;1.52;;;;;;;;;;5074836;28;20074;-61
2021/08/12 13:12:28;;;;;;;1.40;1.30;;;;;;;;;;5074515;28;20024;-60
2021/08/12 13:15:09;;;;;;;1.90;1.80;;;;;;;;;;5074792;28;20052;-60
2021/08/12 13:17:35;;;;;;;1.35;1.25;;;;;;;;;;5070177;28;20020;-61
2021/08/12 13:20:10;;;;;;;1.30;1.20;;;;;;;;;;5070256;28;20032;-60
2021/08/12 13:22:40;;;;;;;1.85;1.30;;;;;;;;;;5064749;28;20467;-60
2021/08/12 13:25:12;;;;;;;1.38;1.27;;;;;;;;;;5071999;28;20058;-61
2021/08/12 13:27:55;;;;;;;2.25;1.42;;;;;;;;;;5059426;28;20347;-60
2021/08/12 13:30:28;;;;;;;3.22;1.33;;;;;;;;;;5073955;28;20019;-60
2021/08/12 13:32:54;;;;;;;2.42;1.50;;;;;;;;;;5064055;28;20112;-60
2021/08/12 13:35:19;;;;;;;1.30;1.20;;;;;;;;;;5063956;28;20398;-60
2021/08/12 13:37:45;;;;;;;1.57;1.47;;;;;;;;;;5055964;28;20029;-60
2021/08/12 13:40:10;;;;;;;1.53;1.30;;;;;;;;;;5074118;28;20027;-61
2021/08/12 13:42:35;;;;;;;1.55;1.45;;;;;;;;;;5073818;28;20024;-61
2021/08/12 13:45:00;;;;;;;1.60;1.50;;;;;;;;;;5056568;28;20023;-61
2021/08/12 13:47:26;;;;;;;1.60;1.50;;;;;;;;;;5073701;28;20189;-60
2021/08/12 13:49:51;;;;;;;2.10;1.25;;;;;;;;;;5064523;28;20020;-61
2021/08/12 13:52:17;;;;;;;1.33;1.27;;;;;;;;;;5071678;28;20024;-60
2021/08/12 13:54:45;;;;;;;1.63;1.30;;;;;;;;;;5064720;28;20433;-60
2021/08/12 13:57:10;;;;;;;1.40;1.30;;;;;;;;;;5073750;28;20024;-61
2021/08/12 13:59:36;;;;;;;1.47;1.37;;;;;;;;;;5073912;28;20077;-61
2021/08/12 14:02:01;;;;;;;1.63;1.52;;;;;;;;;;5072999;28;20257;-61
2021/08/12 14:04:26;;;;;;;1.70;1.40;;;;;;;;;;5071982;28;20071;-61
2021/08/12 14:06:52;;;;;;;1.37;1.27;;;;;;;;;;5072670;28;20045;-61
2021/08/12 14:09:18;;;;;;;1.27;1.13;;;;;;;;;;5073553;28;20262;-60
2021/08/12 14:11:44;;;;;;;2.67;1.30;;;;;;;;;;5061449;28;20048;-60
2021/08/12 14:14:09;;;;;;;1.63;1.48;;;;;;;;;;5063189;28;20104;-60
2021/08/12 14:16:34;;;;;;;2.23;1.50;;;;;;;;;;5073528;28;20016;-60
2021/08/12 14:18:59;;;;;;;1.85;1.40;;;;;;;;;;5073529;28;20016;-60
2021/08/12 14:21:25;;;;;;;2.13;1.63;;;;;;;;;;5073141;28;20024;-60
2021/08/12 14:23:50;;;;;;;1.53;1.43;;;;;;;;;;5073282;28;20259;-60
2021/08/12 14:26:15;;;;;;;1.33;1.23;;;;;;;;;;5060485;28;20447;-61
2021/08/12 14:28:41;;;;;;;1.70;1.30;;;;;;;;;;5062414;28;20047;-60
2021/08/12 14:31:09;;;;;;;2.15;1.40;;;;;;;;;;5073209;28;20051;-60
2021/08/12 14:33:34;;;;;;;1.65;1.20;;;;;;;;;;5072797;28;20016;-60
2021/08/12 14:36:03;;;;;;;1.63;1.53;;;;;;;;;;5071911;28;20371;-60
2021/08/12 14:38:29;;;;;;;1.42;1.23;;;;;;;;;;5072957;28;20291;-61